sensor_id;sensor_type;location;lat;lon;timestamp;P1;durP1;ratioP1;P2;durP2;ratioP2
80199;SDS011;69520;44.900;-0.764;2023-05-01T00:00:54;3.03;;;0.50;;
80199;SDS011;69520;44.900;-0.764;2023-05-01T00:03:20;3.67;;;0.40;;
80199;SDS011;69520;44.900;-0.764;2023-05-01T00:05:46;3.78;;;0.40;;
80199;SDS011;69520;44.900;-0.764;2023-05-01T00:08:12;2.85;;;0.40;;
80199;SDS011;69520;44.900;-0.764;2023-05-01T00:10:38;3.90;;;0.50;;
80199;SDS011;69520;44.900;-0.764;2023-05-01T00:13:04;2.67;;;0.30;;
80199;SDS011;69520;44.900;-0.764;2023-05-01T00:15:31;2.00;;;0.30;;
80199;SDS011;69520;44.900;-0.764;2023-05-01T00:17:57;2.83;;;0.30;;
80199;SDS011;69520;44.900;-0.764;2023-05-01T00:20:26;2.22;;;0.30;;
80199;SDS011;69520;44.900;-0.764;2023-05-01T00:22:52;2.27;;;0.33;;
80199;SDS011;69520;44.900;-0.764;2023-05-01T00:25:19;1.95;;;0.40;;
80199;SDS011;69520;44.900;-0.764;2023-05-01T00:27:45;2.65;;;0.40;;
80199;SDS011;69520;44.900;-0.764;2023-05-01T00:30:12;2.92;;;0.40;;
80199;SDS011;69520;44.900;-0.764;2023-05-01T00:32:38;3.10;;;0.30;;
80199;SDS011;69520;44.900;-0.764;2023-05-01T00:35:04;2.50;;;0.50;;
80199;SDS011;69520;44.900;-0.764;2023-05-01T00:37:30;3.10;;;0.50;;
80199;SDS011;69520;44.900;-0.764;2023-05-01T00:39:56;2.00;;;0.40;;
80199;SDS011;69520;44.900;-0.764;2023-05-01T00:42:22;3.00;;;0.50;;
80199;SDS011;69520;44.900;-0.764;2023-05-01T00:44:48;3.53;;;0.75;;
80199;SDS011;69520;44.900;-0.764;2023-05-01T00:47:14;3.03;;;0.40;;
80199;SDS011;69520;44.900;-0.764;2023-05-01T00:49:43;3.75;;;0.68;;
80199;SDS011;69520;44.900;-0.764;2023-05-01T00:52:10;4.60;;;0.70;;
80199;SDS011;69520;44.900;-0.764;2023-05-01T00:54:37;4.55;;;0.70;;
80199;SDS011;69520;44.900;-0.764;2023-05-01T00:57:03;3.65;;;0.70;;
80199;SDS011;69520;44.900;-0.764;2023-05-01T00:59:32;3.90;;;0.90;;
80199;SDS011;69520;44.900;-0.764;2023-05-01T01:01:58;4.47;;;0.90;;
80199;SDS011;69520;44.900;-0.764;2023-05-01T01:04:24;3.72;;;0.80;;
80199;SDS011;69520;44.900;-0.764;2023-05-01T01:17:44;4.53;;;0.90;;
80199;SDS011;69520;44.900;-0.764;2023-05-01T01:20:25;4.97;;;0.90;;
80199;SDS011;69520;44.900;-0.764;2023-05-01T01:35:59;4.85;;;0.90;;
80199;SDS011;69520;44.900;-0.764;2023-05-01T01:38:28;5.33;;;0.83;;
80199;SDS011;69520;44.900;-0.764;2023-05-01T01:43:39;5.13;;;1.00;;
80199;SDS011;69520;44.900;-0.764;2023-05-01T01:46:09;5.55;;;1.02;;
80199;SDS011;69520;44.900;-0.764;2023-05-01T01:48:36;6.30;;;1.30;;
80199;SDS011;69520;44.900;-0.764;2023-05-01T01:51:05;4.73;;;1.00;;
80199;SDS011;69520;44.900;-0.764;2023-05-01T01:53:31;6.20;;;0.90;;
80199;SDS011;69520;44.900;-0.764;2023-05-01T01:55:58;5.72;;;0.90;;
80199;SDS011;69520;44.900;-0.764;2023-05-01T01:58:24;6.63;;;1.08;;
80199;SDS011;69520;44.900;-0.764;2023-05-01T02:00:52;6.30;;;1.00;;
80199;SDS011;69520;44.900;-0.764;2023-05-01T02:03:19;5.83;;;1.07;;
80199;SDS011;69520;44.900;-0.764;2023-05-01T02:05:46;4.50;;;1.17;;
80199;SDS011;69520;44.900;-0.764;2023-05-01T02:08:14;5.53;;;1.13;;
80199;SDS011;69520;44.900;-0.764;2023-05-01T02:10:41;5.63;;;1.10;;
80199;SDS011;69520;44.900;-0.764;2023-05-01T02:13:08;9.35;;;1.27;;
80199;SDS011;69520;44.900;-0.764;2023-05-01T02:15:35;4.60;;;0.90;;
80199;SDS011;69520;44.900;-0.764;2023-05-01T02:18:02;3.97;;;1.00;;
80199;SDS011;69520;44.900;-0.764;2023-05-01T02:20:29;5.30;;;0.93;;
80199;SDS011;69520;44.900;-0.764;2023-05-01T02:22:56;4.82;;;1.00;;
80199;SDS011;69520;44.900;-0.764;2023-05-01T02:25:23;5.32;;;0.98;;
80199;SDS011;69520;44.900;-0.764;2023-05-01T02:27:51;4.57;;;0.90;;
80199;SDS011;69520;44.900;-0.764;2023-05-01T02:30:17;5.50;;;0.82;;
80199;SDS011;69520;44.900;-0.764;2023-05-01T02:32:43;5.55;;;1.33;;
80199;SDS011;69520;44.900;-0.764;2023-05-01T02:35:10;4.07;;;1.10;;
80199;SDS011;69520;44.900;-0.764;2023-05-01T02:37:36;4.07;;;0.80;;
80199;SDS011;69520;44.900;-0.764;2023-05-01T02:40:02;4.13;;;0.73;;
80199;SDS011;69520;44.900;-0.764;2023-05-01T02:42:29;6.00;;;0.93;;
80199;SDS011;69520;44.900;-0.764;2023-05-01T02:44:57;5.18;;;1.00;;
80199;SDS011;69520;44.900;-0.764;2023-05-01T02:47:25;4.80;;;0.90;;
80199;SDS011;69520;44.900;-0.764;2023-05-01T02:49:51;4.72;;;1.10;;
80199;SDS011;69520;44.900;-0.764;2023-05-01T02:52:19;5.90;;;1.20;;
80199;SDS011;69520;44.900;-0.764;2023-05-01T02:54:47;5.53;;;1.30;;
80199;SDS011;69520;44.900;-0.764;2023-05-01T02:57:13;4.40;;;1.00;;
80199;SDS011;69520;44.900;-0.764;2023-05-01T02:59:39;5.30;;;1.00;;
80199;SDS011;69520;44.900;-0.764;2023-05-01T03:02:05;4.97;;;1.08;;
80199;SDS011;69520;44.900;-0.764;2023-05-01T03:04:31;5.13;;;1.20;;
80199;SDS011;69520;44.900;-0.764;2023-05-01T03:06:57;6.63;;;1.20;;
80199;SDS011;69520;44.900;-0.764;2023-05-01T03:09:23;5.93;;;1.23;;
80199;SDS011;69520;44.900;-0.764;2023-05-01T03:11:49;6.78;;;1.40;;
80199;SDS011;69520;44.900;-0.764;2023-05-01T03:14:15;5.05;;;1.30;;
80199;SDS011;69520;44.900;-0.764;2023-05-01T03:16:41;5.07;;;1.17;;
80199;SDS011;69520;44.900;-0.764;2023-05-01T03:19:08;5.15;;;1.25;;
80199;SDS011;69520;44.900;-0.764;2023-05-01T03:21:35;6.57;;;1.15;;
80199;SDS011;69520;44.900;-0.764;2023-05-01T03:24:01;5.70;;;1.30;;
80199;SDS011;69520;44.900;-0.764;2023-05-01T03:26:27;6.38;;;1.10;;
80199;SDS011;69520;44.900;-0.764;2023-05-01T03:28:54;6.33;;;1.50;;
80199;SDS011;69520;44.900;-0.764;2023-05-01T03:31:20;5.22;;;1.00;;
80199;SDS011;69520;44.900;-0.764;2023-05-01T03:33:46;6.28;;;1.40;;
80199;SDS011;69520;44.900;-0.764;2023-05-01T03:36:12;4.65;;;1.30;;
80199;SDS011;69520;44.900;-0.764;2023-05-01T03:38:38;5.07;;;1.20;;
80199;SDS011;69520;44.900;-0.764;2023-05-01T03:41:04;4.70;;;1.10;;
80199;SDS011;69520;44.900;-0.764;2023-05-01T03:43:30;5.20;;;1.35;;
80199;SDS011;69520;44.900;-0.764;2023-05-01T03:45:57;5.47;;;1.20;;
80199;SDS011;69520;44.900;-0.764;2023-05-01T03:48:23;6.78;;;1.30;;
80199;SDS011;69520;44.900;-0.764;2023-05-01T03:50:52;6.30;;;1.23;;
80199;SDS011;69520;44.900;-0.764;2023-05-01T03:53:18;6.17;;;1.30;;
80199;SDS011;69520;44.900;-0.764;2023-05-01T03:55:44;5.65;;;1.23;;
80199;SDS011;69520;44.900;-0.764;2023-05-01T03:58:10;5.90;;;1.50;;
80199;SDS011;69520;44.900;-0.764;2023-05-01T04:00:36;5.40;;;1.20;;
80199;SDS011;69520;44.900;-0.764;2023-05-01T04:03:03;6.05;;;1.30;;
80199;SDS011;69520;44.900;-0.764;2023-05-01T04:05:29;5.40;;;1.13;;
80199;SDS011;69520;44.900;-0.764;2023-05-01T04:07:55;7.28;;;1.75;;
80199;SDS011;69520;44.900;-0.764;2023-05-01T04:10:21;5.78;;;1.35;;
80199;SDS011;69520;44.900;-0.764;2023-05-01T04:12:48;6.53;;;1.42;;
80199;SDS011;69520;44.900;-0.764;2023-05-01T04:15:14;5.40;;;1.33;;
80199;SDS011;69520;44.900;-0.764;2023-05-01T04:17:40;5.97;;;1.33;;
80199;SDS011;69520;44.900;-0.764;2023-05-01T04:20:07;6.50;;;1.35;;
80199;SDS011;69520;44.900;-0.764;2023-05-01T04:22:34;5.70;;;1.33;;
80199;SDS011;69520;44.900;-0.764;2023-05-01T04:25:00;7.65;;;1.65;;
80199;SDS011;69520;44.900;-0.764;2023-05-01T04:27:27;6.67;;;1.50;;
80199;SDS011;69520;44.900;-0.764;2023-05-01T04:29:53;6.57;;;1.60;;
80199;SDS011;69520;44.900;-0.764;2023-05-01T04:32:19;6.53;;;1.35;;
80199;SDS011;69520;44.900;-0.764;2023-05-01T04:34:46;5.82;;;1.73;;
80199;SDS011;69520;44.900;-0.764;2023-05-01T04:37:12;6.72;;;1.70;;
80199;SDS011;69520;44.900;-0.764;2023-05-01T04:39:38;6.13;;;1.70;;
80199;SDS011;69520;44.900;-0.764;2023-05-01T04:42:04;6.50;;;1.40;;
80199;SDS011;69520;44.900;-0.764;2023-05-01T04:44:30;6.95;;;1.80;;
80199;SDS011;69520;44.900;-0.764;2023-05-01T04:46:59;8.63;;;2.05;;
80199;SDS011;69520;44.900;-0.764;2023-05-01T04:49:26;6.32;;;1.63;;
80199;SDS011;69520;44.900;-0.764;2023-05-01T04:51:52;8.23;;;1.60;;
80199;SDS011;69520;44.900;-0.764;2023-05-01T04:54:18;5.65;;;1.75;;
80199;SDS011;69520;44.900;-0.764;2023-05-01T04:56:44;5.35;;;1.48;;
80199;SDS011;69520;44.900;-0.764;2023-05-01T04:59:10;8.23;;;1.50;;
80199;SDS011;69520;44.900;-0.764;2023-05-01T05:01:36;6.45;;;1.50;;
80199;SDS011;69520;44.900;-0.764;2023-05-01T05:04:02;5.93;;;1.70;;
80199;SDS011;69520;44.900;-0.764;2023-05-01T05:06:29;6.47;;;1.60;;
80199;SDS011;69520;44.900;-0.764;2023-05-01T05:08:55;5.97;;;1.60;;
80199;SDS011;69520;44.900;-0.764;2023-05-01T05:11:21;6.28;;;1.27;;
80199;SDS011;69520;44.900;-0.764;2023-05-01T05:13:47;7.30;;;1.80;;
80199;SDS011;69520;44.900;-0.764;2023-05-01T05:16:13;6.20;;;1.70;;
80199;SDS011;69520;44.900;-0.764;2023-05-01T05:18:40;6.82;;;1.80;;
80199;SDS011;69520;44.900;-0.764;2023-05-01T05:21:06;5.75;;;1.83;;
80199;SDS011;69520;44.900;-0.764;2023-05-01T05:23:33;7.82;;;1.95;;
80199;SDS011;69520;44.900;-0.764;2023-05-01T05:25:59;8.88;;;1.88;;
80199;SDS011;69520;44.900;-0.764;2023-05-01T05:28:28;5.47;;;1.67;;
80199;SDS011;69520;44.900;-0.764;2023-05-01T05:30:55;7.68;;;1.70;;
80199;SDS011;69520;44.900;-0.764;2023-05-01T05:33:21;6.25;;;1.88;;
80199;SDS011;69520;44.900;-0.764;2023-05-01T05:35:49;6.68;;;1.75;;
80199;SDS011;69520;44.900;-0.764;2023-05-01T05:38:15;5.90;;;1.70;;
80199;SDS011;69520;44.900;-0.764;2023-05-01T05:40:41;6.00;;;1.70;;
80199;SDS011;69520;44.900;-0.764;2023-05-01T05:43:07;5.90;;;1.83;;
80199;SDS011;69520;44.900;-0.764;2023-05-01T05:45:34;6.10;;;1.80;;
80199;SDS011;69520;44.900;-0.764;2023-05-01T05:48:00;6.05;;;1.80;;
80199;SDS011;69520;44.900;-0.764;2023-05-01T05:50:26;7.32;;;2.00;;
80199;SDS011;69520;44.900;-0.764;2023-05-01T05:52:53;7.07;;;1.93;;
80199;SDS011;69520;44.900;-0.764;2023-05-01T05:55:20;7.68;;;1.90;;
80199;SDS011;69520;44.900;-0.764;2023-05-01T05:57:46;8.57;;;2.28;;
80199;SDS011;69520;44.900;-0.764;2023-05-01T06:00:12;7.43;;;2.00;;
80199;SDS011;69520;44.900;-0.764;2023-05-01T06:02:38;7.75;;;2.08;;
80199;SDS011;69520;44.900;-0.764;2023-05-01T06:05:04;5.93;;;1.70;;
80199;SDS011;69520;44.900;-0.764;2023-05-01T06:07:30;6.30;;;1.77;;
80199;SDS011;69520;44.900;-0.764;2023-05-01T06:09:56;6.68;;;1.88;;
80199;SDS011;69520;44.900;-0.764;2023-05-01T06:12:29;6.90;;;1.90;;
80199;SDS011;69520;44.900;-0.764;2023-05-01T06:14:56;6.40;;;1.92;;
80199;SDS011;69520;44.900;-0.764;2023-05-01T06:17:22;6.17;;;1.87;;
80199;SDS011;69520;44.900;-0.764;2023-05-01T06:19:48;7.97;;;2.20;;
80199;SDS011;69520;44.900;-0.764;2023-05-01T06:22:16;6.03;;;2.03;;
80199;SDS011;69520;44.900;-0.764;2023-05-01T06:24:42;7.13;;;2.00;;
80199;SDS011;69520;44.900;-0.764;2023-05-01T06:27:09;7.22;;;1.90;;
80199;SDS011;69520;44.900;-0.764;2023-05-01T06:29:35;6.77;;;1.83;;
80199;SDS011;69520;44.900;-0.764;2023-05-01T06:32:01;9.63;;;2.33;;
80199;SDS011;69520;44.900;-0.764;2023-05-01T06:34:28;6.45;;;2.45;;
80199;SDS011;69520;44.900;-0.764;2023-05-01T06:36:54;5.82;;;1.73;;
80199;SDS011;69520;44.900;-0.764;2023-05-01T06:39:20;7.60;;;2.00;;
80199;SDS011;69520;44.900;-0.764;2023-05-01T06:41:46;6.70;;;2.00;;
80199;SDS011;69520;44.900;-0.764;2023-05-01T06:44:12;7.97;;;2.10;;
80199;SDS011;69520;44.900;-0.764;2023-05-01T06:46:38;6.85;;;2.08;;
80199;SDS011;69520;44.900;-0.764;2023-05-01T06:49:04;8.57;;;2.20;;
80199;SDS011;69520;44.900;-0.764;2023-05-01T06:51:30;6.50;;;2.00;;
80199;SDS011;69520;44.900;-0.764;2023-05-01T06:53:56;6.17;;;1.90;;
80199;SDS011;69520;44.900;-0.764;2023-05-01T06:56:22;8.25;;;2.25;;
80199;SDS011;69520;44.900;-0.764;2023-05-01T06:58:48;6.60;;;1.90;;
80199;SDS011;69520;44.900;-0.764;2023-05-01T07:01:15;5.65;;;1.63;;
80199;SDS011;69520;44.900;-0.764;2023-05-01T07:03:41;6.00;;;1.77;;
80199;SDS011;69520;44.900;-0.764;2023-05-01T07:06:07;6.27;;;1.70;;
80199;SDS011;69520;44.900;-0.764;2023-05-01T07:08:33;7.03;;;1.90;;
80199;SDS011;69520;44.900;-0.764;2023-05-01T07:11:00;6.43;;;1.65;;
80199;SDS011;69520;44.900;-0.764;2023-05-01T07:13:26;6.95;;;2.00;;
80199;SDS011;69520;44.900;-0.764;2023-05-01T07:15:52;8.38;;;3.40;;
80199;SDS011;69520;44.900;-0.764;2023-05-01T07:18:18;9.60;;;2.33;;
80199;SDS011;69520;44.900;-0.764;2023-05-01T07:20:44;6.47;;;2.40;;
80199;SDS011;69520;44.900;-0.764;2023-05-01T07:23:11;6.43;;;2.03;;
80199;SDS011;69520;44.900;-0.764;2023-05-01T07:25:37;8.27;;;2.00;;
80199;SDS011;69520;44.900;-0.764;2023-05-01T07:28:05;6.32;;;2.50;;
80199;SDS011;69520;44.900;-0.764;2023-05-01T07:30:32;8.17;;;2.50;;
80199;SDS011;69520;44.900;-0.764;2023-05-01T07:32:58;7.32;;;2.40;;
80199;SDS011;69520;44.900;-0.764;2023-05-01T07:35:24;6.35;;;1.77;;
80199;SDS011;69520;44.900;-0.764;2023-05-01T07:37:50;6.00;;;2.00;;
80199;SDS011;69520;44.900;-0.764;2023-05-01T07:40:17;6.53;;;1.95;;
80199;SDS011;69520;44.900;-0.764;2023-05-01T07:42:43;6.33;;;1.70;;
80199;SDS011;69520;44.900;-0.764;2023-05-01T07:45:09;6.68;;;1.60;;
80199;SDS011;69520;44.900;-0.764;2023-05-01T07:47:35;5.55;;;1.40;;
80199;SDS011;69520;44.900;-0.764;2023-05-01T07:50:02;8.32;;;2.70;;
80199;SDS011;69520;44.900;-0.764;2023-05-01T07:52:28;6.53;;;1.70;;
80199;SDS011;69520;44.900;-0.764;2023-05-01T07:54:54;7.17;;;2.37;;
80199;SDS011;69520;44.900;-0.764;2023-05-01T07:57:20;6.18;;;1.92;;
80199;SDS011;69520;44.900;-0.764;2023-05-01T07:59:52;5.63;;;1.60;;
80199;SDS011;69520;44.900;-0.764;2023-05-01T08:02:19;6.03;;;1.60;;
80199;SDS011;69520;44.900;-0.764;2023-05-01T08:04:46;6.65;;;1.90;;
80199;SDS011;69520;44.900;-0.764;2023-05-01T08:07:12;8.60;;;3.40;;
80199;SDS011;69520;44.900;-0.764;2023-05-01T08:09:38;7.35;;;2.35;;
80199;SDS011;69520;44.900;-0.764;2023-05-01T08:12:05;6.88;;;1.95;;
80199;SDS011;69520;44.900;-0.764;2023-05-01T08:14:31;6.88;;;1.95;;
80199;SDS011;69520;44.900;-0.764;2023-05-01T08:16:57;6.38;;;1.80;;
80199;SDS011;69520;44.900;-0.764;2023-05-01T08:19:23;5.93;;;1.63;;
80199;SDS011;69520;44.900;-0.764;2023-05-01T08:21:49;6.80;;;1.52;;
80199;SDS011;69520;44.900;-0.764;2023-05-01T08:24:15;5.85;;;1.48;;
80199;SDS011;69520;44.900;-0.764;2023-05-01T08:26:41;6.03;;;1.60;;
80199;SDS011;69520;44.900;-0.764;2023-05-01T08:29:08;5.20;;;1.42;;
80199;SDS011;69520;44.900;-0.764;2023-05-01T08:31:34;6.03;;;1.50;;
80199;SDS011;69520;44.900;-0.764;2023-05-01T08:34:02;6.13;;;1.50;;
80199;SDS011;69520;44.900;-0.764;2023-05-01T08:36:28;6.80;;;1.52;;
80199;SDS011;69520;44.900;-0.764;2023-05-01T08:38:56;7.47;;;1.70;;
80199;SDS011;69520;44.900;-0.764;2023-05-01T08:41:22;7.35;;;1.60;;
80199;SDS011;69520;44.900;-0.764;2023-05-01T08:43:49;9.40;;;1.60;;
80199;SDS011;69520;44.900;-0.764;2023-05-01T08:46:18;7.82;;;1.98;;
80199;SDS011;69520;44.900;-0.764;2023-05-01T08:48:49;6.20;;;1.45;;
80199;SDS011;69520;44.900;-0.764;2023-05-01T08:51:15;6.10;;;1.60;;
80199;SDS011;69520;44.900;-0.764;2023-05-01T08:53:44;6.47;;;1.60;;
80199;SDS011;69520;44.900;-0.764;2023-05-01T08:56:11;6.83;;;1.80;;
80199;SDS011;69520;44.900;-0.764;2023-05-01T08:58:39;8.27;;;2.00;;
80199;SDS011;69520;44.900;-0.764;2023-05-01T09:01:06;9.95;;;3.83;;
80199;SDS011;69520;44.900;-0.764;2023-05-01T09:03:32;7.88;;;1.70;;
80199;SDS011;69520;44.900;-0.764;2023-05-01T09:05:58;8.00;;;2.00;;
80199;SDS011;69520;44.900;-0.764;2023-05-01T09:08:24;8.17;;;2.20;;
80199;SDS011;69520;44.900;-0.764;2023-05-01T09:10:51;6.18;;;1.48;;
80199;SDS011;69520;44.900;-0.764;2023-05-01T09:13:18;7.88;;;1.55;;
80199;SDS011;69520;44.900;-0.764;2023-05-01T09:15:45;7.22;;;1.48;;
80199;SDS011;69520;44.900;-0.764;2023-05-01T09:18:11;5.70;;;1.40;;
80199;SDS011;69520;44.900;-0.764;2023-05-01T09:20:37;7.53;;;1.53;;
80199;SDS011;69520;44.900;-0.764;2023-05-01T09:23:03;6.93;;;1.20;;
80199;SDS011;69520;44.900;-0.764;2023-05-01T09:25:29;7.13;;;1.25;;
80199;SDS011;69520;44.900;-0.764;2023-05-01T09:27:55;5.80;;;1.35;;
80199;SDS011;69520;44.900;-0.764;2023-05-01T09:30:31;6.95;;;1.40;;
80199;SDS011;69520;44.900;-0.764;2023-05-01T09:33:04;7.87;;;1.37;;
80199;SDS011;69520;44.900;-0.764;2023-05-01T09:35:30;5.45;;;1.13;;
80199;SDS011;69520;44.900;-0.764;2023-05-01T09:37:58;6.72;;;1.38;;
80199;SDS011;69520;44.900;-0.764;2023-05-01T09:40:27;7.20;;;1.20;;
80199;SDS011;69520;44.900;-0.764;2023-05-01T09:42:53;5.18;;;1.10;;
80199;SDS011;69520;44.900;-0.764;2023-05-01T09:45:22;5.97;;;1.63;;
80199;SDS011;69520;44.900;-0.764;2023-05-01T09:47:48;6.47;;;1.38;;
80199;SDS011;69520;44.900;-0.764;2023-05-01T09:50:27;6.72;;;1.50;;
80199;SDS011;69520;44.900;-0.764;2023-05-01T09:52:53;5.20;;;1.30;;
80199;SDS011;69520;44.900;-0.764;2023-05-01T09:55:20;5.18;;;1.45;;
80199;SDS011;69520;44.900;-0.764;2023-05-01T09:57:47;6.27;;;1.67;;
80199;SDS011;69520;44.900;-0.764;2023-05-01T10:00:14;7.07;;;1.60;;
80199;SDS011;69520;44.900;-0.764;2023-05-01T10:02:41;6.38;;;1.67;;
80199;SDS011;69520;44.900;-0.764;2023-05-01T10:05:08;6.03;;;1.50;;
80199;SDS011;69520;44.900;-0.764;2023-05-01T10:07:34;8.80;;;1.38;;
80199;SDS011;69520;44.900;-0.764;2023-05-01T10:10:19;5.33;;;1.20;;
80199;SDS011;69520;44.900;-0.764;2023-05-01T10:12:46;6.45;;;1.30;;
80199;SDS011;69520;44.900;-0.764;2023-05-01T10:15:12;5.88;;;1.45;;
80199;SDS011;69520;44.900;-0.764;2023-05-01T10:17:38;8.15;;;1.30;;
80199;SDS011;69520;44.900;-0.764;2023-05-01T10:20:05;7.68;;;1.50;;
80199;SDS011;69520;44.900;-0.764;2023-05-01T10:22:32;5.33;;;1.20;;
80199;SDS011;69520;44.900;-0.764;2023-05-01T10:24:58;5.55;;;1.75;;
80199;SDS011;69520;44.900;-0.764;2023-05-01T10:27:24;10.48;;;3.67;;
80199;SDS011;69520;44.900;-0.764;2023-05-01T10:29:51;6.97;;;1.70;;
80199;SDS011;69520;44.900;-0.764;2023-05-01T10:32:18;7.63;;;1.80;;
80199;SDS011;69520;44.900;-0.764;2023-05-01T10:34:50;9.23;;;1.60;;
80199;SDS011;69520;44.900;-0.764;2023-05-01T10:37:20;8.65;;;2.47;;
80199;SDS011;69520;44.900;-0.764;2023-05-01T10:39:48;6.65;;;1.50;;
80199;SDS011;69520;44.900;-0.764;2023-05-01T10:42:14;7.55;;;2.00;;
80199;SDS011;69520;44.900;-0.764;2023-05-01T10:44:40;7.13;;;1.25;;
80199;SDS011;69520;44.900;-0.764;2023-05-01T10:55:34;7.60;;;1.70;;
80199;SDS011;69520;44.900;-0.764;2023-05-01T10:58:00;6.93;;;1.30;;
80199;SDS011;69520;44.900;-0.764;2023-05-01T11:00:26;5.57;;;1.10;;
80199;SDS011;69520;44.900;-0.764;2023-05-01T11:08:28;6.32;;;1.50;;
80199;SDS011;69520;44.900;-0.764;2023-05-01T11:10:55;6.15;;;1.30;;
80199;SDS011;69520;44.900;-0.764;2023-05-01T11:18:50;5.88;;;1.20;;
80199;SDS011;69520;44.900;-0.764;2023-05-01T11:21:16;7.40;;;1.42;;
80199;SDS011;69520;44.900;-0.764;2023-05-01T11:23:45;6.47;;;1.15;;
80199;SDS011;69520;44.900;-0.764;2023-05-01T11:26:11;6.43;;;1.10;;
80199;SDS011;69520;44.900;-0.764;2023-05-01T11:28:38;4.65;;;1.08;;
80199;SDS011;69520;44.900;-0.764;2023-05-01T11:31:05;5.60;;;1.00;;
80199;SDS011;69520;44.900;-0.764;2023-05-01T11:33:31;5.47;;;1.40;;
80199;SDS011;69520;44.900;-0.764;2023-05-01T11:35:58;6.93;;;1.30;;
80199;SDS011;69520;44.900;-0.764;2023-05-01T11:38:24;5.83;;;1.20;;
80199;SDS011;69520;44.900;-0.764;2023-05-01T11:40:53;6.32;;;1.45;;
80199;SDS011;69520;44.900;-0.764;2023-05-01T11:43:21;6.32;;;1.50;;
80199;SDS011;69520;44.900;-0.764;2023-05-01T11:45:47;6.97;;;1.17;;
80199;SDS011;69520;44.900;-0.764;2023-05-01T11:48:16;6.25;;;1.55;;
80199;SDS011;69520;44.900;-0.764;2023-05-01T11:50:42;7.73;;;1.43;;
80199;SDS011;69520;44.900;-0.764;2023-05-01T11:53:09;6.53;;;1.20;;
80199;SDS011;69520;44.900;-0.764;2023-05-01T11:55:36;6.53;;;1.30;;
80199;SDS011;69520;44.900;-0.764;2023-05-01T11:58:04;7.13;;;2.05;;
80199;SDS011;69520;44.900;-0.764;2023-05-01T12:00:30;9.48;;;1.58;;
80199;SDS011;69520;44.900;-0.764;2023-05-01T12:03:02;7.37;;;1.27;;
80199;SDS011;69520;44.900;-0.764;2023-05-01T12:05:30;7.00;;;1.40;;
80199;SDS011;69520;44.900;-0.764;2023-05-01T12:08:15;6.75;;;1.50;;
80199;SDS011;69520;44.900;-0.764;2023-05-01T12:10:53;6.18;;;1.30;;
80199;SDS011;69520;44.900;-0.764;2023-05-01T12:13:20;6.13;;;1.25;;
80199;SDS011;69520;44.900;-0.764;2023-05-01T12:15:47;6.27;;;1.20;;
80199;SDS011;69520;44.900;-0.764;2023-05-01T12:18:13;8.77;;;1.48;;
80199;SDS011;69520;44.900;-0.764;2023-05-01T12:20:40;4.75;;;1.05;;
80199;SDS011;69520;44.900;-0.764;2023-05-01T12:23:07;5.63;;;1.17;;
80199;SDS011;69520;44.900;-0.764;2023-05-01T12:25:34;4.38;;;0.98;;
80199;SDS011;69520;44.900;-0.764;2023-05-01T12:28:02;5.33;;;1.00;;
80199;SDS011;69520;44.900;-0.764;2023-05-01T12:30:28;5.90;;;1.30;;
80199;SDS011;69520;44.900;-0.764;2023-05-01T12:32:57;5.88;;;1.05;;
80199;SDS011;69520;44.900;-0.764;2023-05-01T12:35:29;5.35;;;1.10;;
80199;SDS011;69520;44.900;-0.764;2023-05-01T12:37:55;7.13;;;1.23;;
80199;SDS011;69520;44.900;-0.764;2023-05-01T12:40:22;5.00;;;1.10;;
80199;SDS011;69520;44.900;-0.764;2023-05-01T12:42:55;5.35;;;1.23;;
80199;SDS011;69520;44.900;-0.764;2023-05-01T12:45:25;6.60;;;1.02;;
80199;SDS011;69520;44.900;-0.764;2023-05-01T12:47:51;6.55;;;1.25;;
80199;SDS011;69520;44.900;-0.764;2023-05-01T12:50:18;6.18;;;1.30;;
80199;SDS011;69520;44.900;-0.764;2023-05-01T12:52:44;6.70;;;1.37;;
80199;SDS011;69520;44.900;-0.764;2023-05-01T12:55:10;6.15;;;1.60;;
80199;SDS011;69520;44.900;-0.764;2023-05-01T12:57:49;6.65;;;1.30;;
80199;SDS011;69520;44.900;-0.764;2023-05-01T13:00:15;4.82;;;1.27;;
80199;SDS011;69520;44.900;-0.764;2023-05-01T13:02:42;7.20;;;1.30;;
80199;SDS011;69520;44.900;-0.764;2023-05-01T13:05:09;6.90;;;1.80;;
80199;SDS011;69520;44.900;-0.764;2023-05-01T13:07:36;7.35;;;2.30;;
80199;SDS011;69520;44.900;-0.764;2023-05-01T13:10:04;5.95;;;1.38;;
80199;SDS011;69520;44.900;-0.764;2023-05-01T13:12:31;4.30;;;1.20;;
80199;SDS011;69520;44.900;-0.764;2023-05-01T13:14:57;7.82;;;1.30;;
80199;SDS011;69520;44.900;-0.764;2023-05-01T13:17:30;5.77;;;1.07;;
80199;SDS011;69520;44.900;-0.764;2023-05-01T13:20:00;8.82;;;2.38;;
80199;SDS011;69520;44.900;-0.764;2023-05-01T13:22:29;5.43;;;1.25;;
80199;SDS011;69520;44.900;-0.764;2023-05-01T13:24:55;5.22;;;1.05;;
80199;SDS011;69520;44.900;-0.764;2023-05-01T13:27:21;4.72;;;0.88;;
80199;SDS011;69520;44.900;-0.764;2023-05-01T13:29:54;6.03;;;1.10;;
80199;SDS011;69520;44.900;-0.764;2023-05-01T13:32:21;6.40;;;1.20;;
80199;SDS011;69520;44.900;-0.764;2023-05-01T13:34:48;8.32;;;1.20;;
80199;SDS011;69520;44.900;-0.764;2023-05-01T13:37:14;6.43;;;1.40;;
80199;SDS011;69520;44.900;-0.764;2023-05-01T13:39:43;5.15;;;1.00;;
80199;SDS011;69520;44.900;-0.764;2023-05-01T13:42:10;6.70;;;1.20;;
80199;SDS011;69520;44.900;-0.764;2023-05-01T13:44:43;6.18;;;1.05;;
80199;SDS011;69520;44.900;-0.764;2023-05-01T13:47:15;5.82;;;1.35;;
80199;SDS011;69520;44.900;-0.764;2023-05-01T13:49:41;6.38;;;1.17;;
80199;SDS011;69520;44.900;-0.764;2023-05-01T13:52:11;6.03;;;1.10;;
80199;SDS011;69520;44.900;-0.764;2023-05-01T13:54:38;4.80;;;1.10;;
80199;SDS011;69520;44.900;-0.764;2023-05-01T13:57:06;6.10;;;1.30;;
80199;SDS011;69520;44.900;-0.764;2023-05-01T13:59:43;5.63;;;1.23;;
80199;SDS011;69520;44.900;-0.764;2023-05-01T14:02:17;6.43;;;1.30;;
80199;SDS011;69520;44.900;-0.764;2023-05-01T14:04:46;4.60;;;1.17;;
80199;SDS011;69520;44.900;-0.764;2023-05-01T14:07:22;6.40;;;1.20;;
80199;SDS011;69520;44.900;-0.764;2023-05-01T14:09:54;7.50;;;1.23;;
80199;SDS011;69520;44.900;-0.764;2023-05-01T14:12:30;5.95;;;1.08;;
80199;SDS011;69520;44.900;-0.764;2023-05-01T14:14:56;4.68;;;1.10;;
80199;SDS011;69520;44.900;-0.764;2023-05-01T14:17:30;5.05;;;1.00;;
80199;SDS011;69520;44.900;-0.764;2023-05-01T14:19:57;5.17;;;1.10;;
80199;SDS011;69520;44.900;-0.764;2023-05-01T14:22:24;5.82;;;1.08;;
80199;SDS011;69520;44.900;-0.764;2023-05-01T14:24:53;5.93;;;1.02;;
80199;SDS011;69520;44.900;-0.764;2023-05-01T14:27:19;4.43;;;1.00;;
80199;SDS011;69520;44.900;-0.764;2023-05-01T14:29:47;4.70;;;0.90;;
80199;SDS011;69520;44.900;-0.764;2023-05-01T14:32:14;5.20;;;1.10;;
80199;SDS011;69520;44.900;-0.764;2023-05-01T14:34:40;5.00;;;0.82;;
80199;SDS011;69520;44.900;-0.764;2023-05-01T14:37:10;4.63;;;0.90;;
80199;SDS011;69520;44.900;-0.764;2023-05-01T14:39:38;3.83;;;1.17;;
80199;SDS011;69520;44.900;-0.764;2023-05-01T14:42:05;4.75;;;1.00;;
80199;SDS011;69520;44.900;-0.764;2023-05-01T14:44:31;4.80;;;1.00;;
80199;SDS011;69520;44.900;-0.764;2023-05-01T14:46:57;5.15;;;1.20;;
80199;SDS011;69520;44.900;-0.764;2023-05-01T14:49:24;6.40;;;1.00;;
80199;SDS011;69520;44.900;-0.764;2023-05-01T14:51:51;4.90;;;1.13;;
80199;SDS011;69520;44.900;-0.764;2023-05-01T14:54:17;5.05;;;1.42;;
80199;SDS011;69520;44.900;-0.764;2023-05-01T14:56:44;6.53;;;1.30;;
80199;SDS011;69520;44.900;-0.764;2023-05-01T14:59:11;5.95;;;1.08;;
80199;SDS011;69520;44.900;-0.764;2023-05-01T15:01:37;4.90;;;1.23;;
80199;SDS011;69520;44.900;-0.764;2023-05-01T15:04:03;7.15;;;1.60;;
80199;SDS011;69520;44.900;-0.764;2023-05-01T15:06:34;4.90;;;1.15;;
80199;SDS011;69520;44.900;-0.764;2023-05-01T15:09:01;7.20;;;1.53;;
80199;SDS011;69520;44.900;-0.764;2023-05-01T15:11:29;6.20;;;1.50;;
80199;SDS011;69520;44.900;-0.764;2023-05-01T15:13:55;5.43;;;1.25;;
80199;SDS011;69520;44.900;-0.764;2023-05-01T15:16:21;7.60;;;1.45;;
80199;SDS011;69520;44.900;-0.764;2023-05-01T15:18:47;4.72;;;1.20;;